sensor_id;sensor_type;location;lat;lon;timestamp;pressure;altitude;pressure_sealevel;temperature;humidity
41140;BME280;26881;48.784;9.192;2024-03-02T00:05:10;97449.59;;;6.53;100.00
41140;BME280;26881;48.784;9.192;2024-03-02T00:10:39;97450.25;;;6.57;100.00
41140;BME280;26881;48.784;9.192;2024-03-02T00:16:04;97449.59;;;6.53;100.00
41140;BME280;26881;48.784;9.192;2024-03-02T00:21:29;97445.53;;;6.49;100.00
41140;BME280;26881;48.784;9.192;2024-03-02T00:26:51;97448.03;;;6.37;100.00
41140;BME280;26881;48.784;9.192;2024-03-02T00:32:16;97443.66;;;6.23;100.00
41140;BME280;26881;48.784;9.192;2024-03-02T00:37:38;97456.16;;;6.16;100.00
41140;BME280;26881;48.784;9.192;2024-03-02T00:43:01;97461.22;;;6.03;100.00
41140;BME280;26881;48.784;9.192;2024-03-02T00:48:23;97454.56;;;5.99;100.00
41140;BME280;26881;48.784;9.192;2024-03-02T00:53:47;97447.28;;;5.90;100.00
41140;BME280;26881;48.784;9.192;2024-03-02T00:59:10;97447.28;;;5.90;100.00
41140;BME280;26881;48.784;9.192;2024-03-02T01:04:32;97448.19;;;5.89;100.00
41140;BME280;26881;48.784;9.192;2024-03-02T01:09:54;97448.94;;;5.91;100.00
41140;BME280;26881;48.784;9.192;2024-03-02T01:15:16;97442.25;;;5.87;100.00
41140;BME280;26881;48.784;9.192;2024-03-02T01:20:38;97450.97;;;5.86;100.00
41140;BME280;26881;48.784;9.192;2024-03-02T01:26:00;97440.13;;;5.79;100.00
41140;BME280;26881;48.784;9.192;2024-03-02T01:31:22;97436.84;;;5.76;100.00
41140;BME280;26881;48.784;9.192;2024-03-02T01:36:43;97446.94;;;5.66;100.00
41140;BME280;26881;48.784;9.192;2024-03-02T01:42:05;97444.03;;;5.56;100.00
41140;BME280;26881;48.784;9.192;2024-03-02T01:47:27;97451.56;;;5.45;100.00
41140;BME280;26881;48.784;9.192;2024-03-02T01:52:49;97447.75;;;5.36;100.00
41140;BME280;26881;48.784;9.192;2024-03-02T01:58:11;97450.19;;;5.23;100.00
41140;BME280;26881;48.784;9.192;2024-03-02T02:03:33;97445.50;;;5.14;100.00
41140;BME280;26881;48.784;9.192;2024-03-02T02:08:55;97447.47;;;5.11;100.00
41140;BME280;26881;48.784;9.192;2024-03-02T02:14:17;97436.50;;;4.90;100.00
41140;BME280;26881;48.784;9.192;2024-03-02T02:19:40;97433.56;;;4.96;100.00
41140;BME280;26881;48.784;9.192;2024-03-02T02:25:02;97431.38;;;4.72;100.00
41140;BME280;26881;48.784;9.192;2024-03-02T02:30:27;97423.69;;;4.71;100.00
41140;BME280;26881;48.784;9.192;2024-03-02T02:35:49;97421.41;;;4.49;100.00
41140;BME280;26881;48.784;9.192;2024-03-02T02:41:11;97417.97;;;4.32;100.00
41140;BME280;26881;48.784;9.192;2024-03-02T02:46:33;97406.56;;;4.19;100.00
41140;BME280;26881;48.784;9.192;2024-03-02T02:51:55;97404.22;;;4.14;100.00
41140;BME280;26881;48.784;9.192;2024-03-02T02:57:17;97402.56;;;4.13;100.00
41140;BME280;26881;48.784;9.192;2024-03-02T03:02:43;97403.94;;;4.03;100.00
41140;BME280;26881;48.784;9.192;2024-03-02T03:08:05;97408.16;;;3.88;100.00
41140;BME280;26881;48.784;9.192;2024-03-02T03:13:27;97411.50;;;3.90;100.00
41140;BME280;26881;48.784;9.192;2024-03-02T03:18:49;97417.75;;;3.86;100.00
41140;BME280;26881;48.784;9.192;2024-03-02T03:24:13;97413.09;;;3.93;100.00
41140;BME280;26881;48.784;9.192;2024-03-02T03:29:36;97412.66;;;3.85;100.00
41140;BME280;26881;48.784;9.192;2024-03-02T03:34:58;97410.69;;;3.72;100.00
41140;BME280;26881;48.784;9.192;2024-03-02T03:40:20;97416.16;;;3.66;100.00
41140;BME280;26881;48.784;9.192;2024-03-02T03:45:42;97414.72;;;3.61;100.00
41140;BME280;26881;48.784;9.192;2024-03-02T03:51:04;97414.81;;;3.59;100.00
41140;BME280;26881;48.784;9.192;2024-03-02T03:56:25;97414.72;;;3.61;100.00
41140;BME280;26881;48.784;9.192;2024-03-02T04:01:47;97411.53;;;3.55;100.00
41140;BME280;26881;48.784;9.192;2024-03-02T04:07:10;97416.97;;;3.49;100.00
41140;BME280;26881;48.784;9.192;2024-03-02T04:12:32;97417.31;;;3.43;100.00
41140;BME280;26881;48.784;9.192;2024-03-02T04:17:54;97419.88;;;3.43;100.00
41140;BME280;26881;48.784;9.192;2024-03-02T04:23:17;97422.78;;;3.54;100.00
41140;BME280;26881;48.784;9.192;2024-03-02T04:28:38;97414.34;;;3.51;100.00
41140;BME280;26881;48.784;9.192;2024-03-02T04:34:00;97411.22;;;3.44;100.00
41140;BME280;26881;48.784;9.192;2024-03-02T04:39:22;97417.03;;;3.30;100.00
41140;BME280;26881;48.784;9.192;2024-03-02T04:44:44;97413.84;;;3.25;100.00
41140;BME280;26881;48.784;9.192;2024-03-02T04:50:07;97422.81;;;3.18;100.00
41140;BME280;26881;48.784;9.192;2024-03-02T04:55:29;97418.78;;;3.12;100.00
41140;BME280;26881;48.784;9.192;2024-03-02T05:01:11;97408.84;;;3.22;100.00
41140;BME280;26881;48.784;9.192;2024-03-02T05:06:33;97422.66;;;3.21;100.00
41140;BME280;26881;48.784;9.192;2024-03-02T05:11:55;97422.19;;;3.13;100.00
41140;BME280;26881;48.784;9.192;2024-03-02T05:17:51;97411.38;;;3.05;100.00
41140;BME280;26881;48.784;9.192;2024-03-02T05:23:13;97427.72;;;3.05;100.00
41140;BME280;26881;48.784;9.192;2024-03-02T05:28:36;97418.78;;;3.12;100.00
41140;BME280;26881;48.784;9.192;2024-03-02T05:33:58;97427.59;;;3.08;100.00
41140;BME280;26881;48.784;9.192;2024-03-02T05:39:21;97428.25;;;3.12;100.00
41140;BME280;26881;48.784;9.192;2024-03-02T05:44:43;97427.38;;;3.13;100.00
41140;BME280;26881;48.784;9.192;2024-03-02T05:50:05;97433.63;;;3.07;100.00
41140;BME280;26881;48.784;9.192;2024-03-02T05:55:28;97440.72;;;3.04;100.00
41140;BME280;26881;48.784;9.192;2024-03-02T06:00:50;97437.50;;;2.99;100.00
41140;BME280;26881;48.784;9.192;2024-03-02T06:06:12;97449.78;;;2.93;100.00
41140;BME280;26881;48.784;9.192;2024-03-02T06:11:35;97452.50;;;3.09;100.00
41140;BME280;26881;48.784;9.192;2024-03-02T06:16:58;97452.38;;;3.12;100.00
41140;BME280;26881;48.784;9.192;2024-03-02T06:22:21;97455.69;;;3.14;100.00
41140;BME280;26881;48.784;9.192;2024-03-02T06:27:44;97434.91;;;3.17;100.00
41140;BME280;26881;48.784;9.192;2024-03-02T06:33:06;97456.19;;;3.23;100.00
41140;BME280;26881;48.784;9.192;2024-03-02T06:38:28;97462.34;;;3.37;100.00
41140;BME280;26881;48.784;9.192;2024-03-02T06:43:50;97450.53;;;3.51;100.00
41140;BME280;26881;48.784;9.192;2024-03-02T06:49:16;97461.03;;;3.65;100.00
41140;BME280;26881;48.784;9.192;2024-03-02T06:54:39;97463.47;;;3.86;100.00
41140;BME280;26881;48.784;9.192;2024-03-02T07:00:01;97464.97;;;4.07;100.00
41140;BME280;26881;48.784;9.192;2024-03-02T07:05:26;97466.50;;;4.11;100.00
41140;BME280;26881;48.784;9.192;2024-03-02T07:10:48;97458.66;;;4.13;100.00
41140;BME280;26881;48.784;9.192;2024-03-02T07:16:11;97463.63;;;4.33;100.00
41140;BME280;26881;48.784;9.192;2024-03-02T07:21:32;97460.25;;;4.49;100.00
41140;BME280;26881;48.784;9.192;2024-03-02T07:26:55;97467.47;;;4.75;100.00
41140;BME280;26881;48.784;9.192;2024-03-02T07:32:17;97458.22;;;5.03;100.00
41140;BME280;26881;48.784;9.192;2024-03-02T07:37:38;97460.81;;;5.35;100.00
41140;BME280;26881;48.784;9.192;2024-03-02T07:43:00;97455.34;;;5.55;100.00
41140;BME280;26881;48.784;9.192;2024-03-02T07:48:22;97469.69;;;5.77;100.00
41140;BME280;26881;48.784;9.192;2024-03-02T07:53:44;97463.28;;;5.82;100.00
41140;BME280;26881;48.784;9.192;2024-03-02T07:59:08;97477.06;;;5.99;100.00
41140;BME280;26881;48.784;9.192;2024-03-02T08:04:30;97468.88;;;6.06;100.00
41140;BME280;26881;48.784;9.192;2024-03-02T08:09:52;97463.50;;;6.24;100.00
41140;BME280;26881;48.784;9.192;2024-03-02T08:15:14;97455.25;;;6.31;100.00
41140;BME280;26881;48.784;9.192;2024-03-02T08:20:36;97464.53;;;6.64;97.12
41140;BME280;26881;48.784;9.192;2024-03-02T08:25:58;97457.03;;;6.74;95.41
41140;BME280;26881;48.784;9.192;2024-03-02T08:31:20;97451.59;;;6.91;95.58
41140;BME280;26881;48.784;9.192;2024-03-02T08:36:42;97446.91;;;7.11;94.25
41140;BME280;26881;48.784;9.192;2024-03-02T08:42:04;97438.00;;;7.42;93.65
41140;BME280;26881;48.784;9.192;2024-03-02T08:47:27;97450.28;;;7.80;90.32
41140;BME280;26881;48.784;9.192;2024-03-02T08:52:49;97443.38;;;8.19;86.80
41140;BME280;26881;48.784;9.192;2024-03-02T08:58:10;97429.53;;;8.57;81.96
41140;BME280;26881;48.784;9.192;2024-03-02T09:03:32;97438.28;;;9.05;77.39
41140;BME280;26881;48.784;9.192;2024-03-02T09:08:55;97440.72;;;9.44;69.89
41140;BME280;26881;48.784;9.192;2024-03-02T09:14:17;97425.34;;;13.52;57.40
41140;BME280;26881;48.784;9.192;2024-03-02T09:19:39;97394.16;;;18.19;40.27
41140;BME280;26881;48.784;9.192;2024-03-02T09:25:01;97383.16;;;20.55;35.43
41140;BME280;26881;48.784;9.192;2024-03-02T09:30:23;97380.34;;;22.30;30.63
41140;BME280;26881;48.784;9.192;2024-03-02T09:35:45;97363.66;;;23.40;29.64
41140;BME280;26881;48.784;9.192;2024-03-02T09:41:07;97371.78;;;24.53;28.09
41140;BME280;26881;48.784;9.192;2024-03-02T09:46:30;97374.84;;;19.91;34.42
41140;BME280;26881;48.784;9.192;2024-03-02T09:51:52;97369.50;;;20.29;33.71
41140;BME280;26881;48.784;9.192;2024-03-02T09:57:15;97355.25;;;22.46;30.26
41140;BME280;26881;48.784;9.192;2024-03-02T10:02:37;97354.53;;;23.07;28.87
41140;BME280;26881;48.784;9.192;2024-03-02T10:08:01;97347.69;;;24.39;28.07
41140;BME280;26881;48.784;9.192;2024-03-02T10:13:26;97339.94;;;24.18;28.64
41140;BME280;26881;48.784;9.192;2024-03-02T10:18:48;97339.38;;;25.64;26.20
41140;BME280;26881;48.784;9.192;2024-03-02T10:24:10;97346.06;;;23.65;27.87
41140;BME280;26881;48.784;9.192;2024-03-02T10:29:32;97330.06;;;24.18;27.47
41140;BME280;26881;48.784;9.192;2024-03-02T10:34:55;97333.66;;;23.11;29.08
41140;BME280;26881;48.784;9.192;2024-03-02T10:40:17;97326.59;;;22.20;30.56
41140;BME280;26881;48.784;9.192;2024-03-02T10:45:39;97319.13;;;23.47;29.32
41140;BME280;26881;48.784;9.192;2024-03-02T10:51:01;97318.06;;;21.32;31.93
41140;BME280;26881;48.784;9.192;2024-03-02T10:56:28;97308.22;;;22.67;30.72
41140;BME280;26881;48.784;9.192;2024-03-02T11:01:55;97296.69;;;24.61;27.84
41140;BME280;26881;48.784;9.192;2024-03-02T11:07:20;97286.25;;;24.26;28.08
41140;BME280;26881;48.784;9.192;2024-03-02T11:12:49;97297.91;;;21.23;31.82
41140;BME280;26881;48.784;9.192;2024-03-02T11:18:15;97274.00;;;22.70;31.55
41140;BME280;26881;48.784;9.192;2024-03-02T11:23:38;97272.44;;;26.52;26.11
41140;BME280;26881;48.784;9.192;2024-03-02T11:29:02;97259.75;;;27.26;25.19
41140;BME280;26881;48.784;9.192;2024-03-02T11:34:30;97254.09;;;25.05;27.87
41140;BME280;26881;48.784;9.192;2024-03-02T11:39:52;97249.66;;;25.55;26.72
41140;BME280;26881;48.784;9.192;2024-03-02T11:45:17;97230.09;;;26.90;25.24
41140;BME280;26881;48.784;9.192;2024-03-02T11:50:48;97238.22;;;25.10;26.57
41140;BME280;26881;48.784;9.192;2024-03-02T11:56:11;97220.88;;;24.35;27.71
41140;BME280;26881;48.784;9.192;2024-03-02T12:01:34;97213.63;;;23.04;28.19
41140;BME280;26881;48.784;9.192;2024-03-02T12:06:57;97192.88;;;23.80;27.22
41140;BME280;26881;48.784;9.192;2024-03-02T12:12:23;97187.75;;;24.88;26.08
41140;BME280;26881;48.784;9.192;2024-03-02T12:17:45;97184.88;;;24.51;26.61
41140;BME280;26881;48.784;9.192;2024-03-02T12:23:07;97185.38;;;24.22;26.13
41140;BME280;26881;48.784;9.192;2024-03-02T12:28:29;97186.16;;;22.42;29.48
41140;BME280;26881;48.784;9.192;2024-03-02T12:33:54;97174.13;;;21.70;30.20
41140;BME280;26881;48.784;9.192;2024-03-02T12:39:16;97170.22;;;21.16;30.04
41140;BME280;26881;48.784;9.192;2024-03-02T12:44:39;97157.41;;;23.46;27.59
41140;BME280;26881;48.784;9.192;2024-03-02T12:50:02;97151.44;;;23.44;28.78
41140;BME280;26881;48.784;9.192;2024-03-02T12:55:25;97145.00;;;24.43;26.69
41140;BME280;26881;48.784;9.192;2024-03-02T13:00:48;97157.69;;;24.09;25.90
41140;BME280;26881;48.784;9.192;2024-03-02T13:06:10;97146.06;;;22.64;27.99
41140;BME280;26881;48.784;9.192;2024-03-02T13:11:32;97131.34;;;25.65;24.58
41140;BME280;26881;48.784;9.192;2024-03-02T13:16:57;97141.50;;;24.81;24.25
41140;BME280;26881;48.784;9.192;2024-03-02T13:22:20;97128.09;;;25.13;24.31
41140;BME280;26881;48.784;9.192;2024-03-02T13:27:42;97128.91;;;24.56;24.48
41140;BME280;26881;48.784;9.192;2024-03-02T13:33:05;97120.50;;;26.45;23.52
41140;BME280;26881;48.784;9.192;2024-03-02T13:38:27;97121.50;;;24.58;24.69
41140;BME280;26881;48.784;9.192;2024-03-02T13:43:48;97115.66;;;26.54;23.25
41140;BME280;26881;48.784;9.192;2024-03-02T13:49:13;97117.88;;;26.57;22.69
41140;BME280;26881;48.784;9.192;2024-03-02T13:54:37;97118.25;;;25.75;24.48
41140;BME280;26881;48.784;9.192;2024-03-02T13:59:59;97106.78;;;26.96;22.56
41140;BME280;26881;48.784;9.192;2024-03-02T14:05:22;97100.34;;;26.85;22.27
41140;BME280;26881;48.784;9.192;2024-03-02T14:10:44;97095.63;;;27.69;21.76
41140;BME280;26881;48.784;9.192;2024-03-02T14:16:06;97095.03;;;26.06;23.27
41140;BME280;26881;48.784;9.192;2024-03-02T14:21:28;97092.06;;;25.59;23.12
41140;BME280;26881;48.784;9.192;2024-03-02T14:26:50;97085.09;;;26.13;22.62
41140;BME280;26881;48.784;9.192;2024-03-02T14:32:14;97078.53;;;26.09;23.02
41140;BME280;26881;48.784;9.192;2024-03-02T14:37:36;97075.56;;;24.36;24.54
41140;BME280;26881;48.784;9.192;2024-03-02T14:42:58;97065.00;;;25.30;24.80
41140;BME280;26881;48.784;9.192;2024-03-02T14:48:21;97074.22;;;23.75;24.64
41140;BME280;26881;48.784;9.192;2024-03-02T14:53:43;97073.22;;;22.30;25.65
41140;BME280;26881;48.784;9.192;2024-03-02T14:59:05;97062.09;;;21.52;26.56
41140;BME280;26881;48.784;9.192;2024-03-02T15:04:27;97060.63;;;20.21;28.04
41140;BME280;26881;48.784;9.192;2024-03-02T15:09:49;97052.88;;;19.39;29.17
41140;BME280;26881;48.784;9.192;2024-03-02T15:15:12;97048.00;;;18.83;29.87
41140;BME280;26881;48.784;9.192;2024-03-02T15:20:34;97033.47;;;18.18;31.19
41140;BME280;26881;48.784;9.192;2024-03-02T15:25:56;97034.19;;;17.73;32.36
41140;BME280;26881;48.784;9.192;2024-03-02T15:31:18;97026.06;;;17.43;32.80
41140;BME280;26881;48.784;9.192;2024-03-02T15:36:40;97010.06;;;17.36;32.96
41140;BME280;26881;48.784;9.192;2024-03-02T15:42:02;97017.78;;;16.98;33.58
41140;BME280;26881;48.784;9.192;2024-03-02T15:47:25;97024.41;;;16.78;34.77
41140;BME280;26881;48.784;9.192;2024-03-02T15:52:48;97028.41;;;16.41;35.50
41140;BME280;26881;48.784;9.192;2024-03-02T15:58:10;97023.41;;;15.89;36.56
41140;BME280;26881;48.784;9.192;2024-03-02T16:03:32;97021.66;;;15.55;37.20
41140;BME280;26881;48.784;9.192;2024-03-02T16:08:54;97010.75;;;15.50;37.57
41140;BME280;26881;48.784;9.192;2024-03-02T16:14:18;97011.06;;;15.38;38.43
41140;BME280;26881;48.784;9.192;2024-03-02T16:19:40;97010.63;;;15.17;40.54
41140;BME280;26881;48.784;9.192;2024-03-02T16:25:03;97013.97;;;14.93;41.53
41140;BME280;26881;48.784;9.192;2024-03-02T16:30:26;97028.19;;;14.56;42.70
41140;BME280;26881;48.784;9.192;2024-03-02T16:35:48;97037.69;;;14.13;44.03
41140;BME280;26881;48.784;9.192;2024-03-02T16:41:11;97053.31;;;13.97;45.14
41140;BME280;26881;48.784;9.192;2024-03-02T16:46:33;97063.50;;;13.82;46.06
41140;BME280;26881;48.784;9.192;2024-03-02T16:51:55;97065.94;;;13.65;47.03
41140;BME280;26881;48.784;9.192;2024-03-02T16:57:17;97071.50;;;13.62;47.84
41140;BME280;26881;48.784;9.192;2024-03-02T17:02:39;97084.81;;;13.51;49.45
41140;BME280;26881;48.784;9.192;2024-03-02T17:08:01;97077.44;;;13.37;50.90
41140;BME280;26881;48.784;9.192;2024-03-02T17:13:23;97077.84;;;13.32;51.97
41140;BME280;26881;48.784;9.192;2024-03-02T17:18:45;97083.56;;;13.18;52.96
41140;BME280;26881;48.784;9.192;2024-03-02T17:24:07;97085.09;;;13.11;53.83
41140;BME280;26881;48.784;9.192;2024-03-02T17:29:29;97091.91;;;12.94;54.61
41140;BME280;26881;48.784;9.192;2024-03-02T17:34:51;97104.63;;;12.79;56.22
41140;BME280;26881;48.784;9.192;2024-03-02T17:40:13;97107.00;;;12.62;57.82
41140;BME280;26881;48.784;9.192;2024-03-02T17:45:35;97109.09;;;12.59;60.12
41140;BME280;26881;48.784;9.192;2024-03-02T17:50:57;97112.38;;;12.61;61.12
41140;BME280;26881;48.784;9.192;2024-03-02T17:56:19;97109.63;;;12.53;61.99
41140;BME280;26881;48.784;9.192;2024-03-02T18:01:40;97105.50;;;12.50;62.46
41140;BME280;26881;48.784;9.192;2024-03-02T18:07:02;97099.84;;;12.55;62.98
41140;BME280;26881;48.784;9.192;2024-03-02T18:12:24;97087.53;;;12.55;63.61
41140;BME280;26881;48.784;9.192;2024-03-02T18:17:47;97070.16;;;12.44;64.26
41140;BME280;26881;48.784;9.192;2024-03-02T18:23:08;97073.59;;;12.35;65.20
41140;BME280;26881;48.784;9.192;2024-03-02T18:28:31;97079.97;;;12.23;66.07
41140;BME280;26881;48.784;9.192;2024-03-02T18:33:53;97075.69;;;12.12;66.71
41140;BME280;26881;48.784;9.192;2024-03-02T18:39:15;97081.34;;;12.17;66.72
41140;BME280;26881;48.784;9.192;2024-03-02T18:44:36;97075.94;;;12.19;66.98
41140;BME280;26881;48.784;9.192;2024-03-02T18:49:59;97066.44;;;12.18;67.27
41140;BME280;26881;48.784;9.192;2024-03-02T18:55:22;97061.19;;;12.08;67.70
41140;BME280;26881;48.784;9.192;2024-03-02T19:00:44;97058.16;;;12.03;68.52
41140;BME280;26881;48.784;9.192;2024-03-02T19:06:06;97050.94;;;11.86;69.44
41140;BME280;26881;48.784;9.192;2024-03-02T19:11:29;97042.81;;;11.89;69.32
41140;BME280;26881;48.784;9.192;2024-03-02T19:16:51;97034.94;;;11.79;69.78
41140;BME280;26881;48.784;9.192;2024-03-02T19:22:13;97044.69;;;11.67;70.34
41140;BME280;26881;48.784;9.192;2024-03-02T19:27:35;97041.13;;;11.58;71.24
41140;BME280;26881;48.784;9.192;2024-03-02T19:32:58;97053.47;;;11.47;71.60
41140;BME280;26881;48.784;9.192;2024-03-02T19:38:20;97044.50;;;11.39;71.67
41140;BME280;26881;48.784;9.192;2024-03-02T19:43:42;97036.78;;;11.38;71.58
41140;BME280;26881;48.784;9.192;2024-03-02T19:49:04;97039.09;;;11.31;72.12
41140;BME280;26881;48.784;9.192;2024-03-02T19:54:26;97039.78;;;11.24;72.44
41140;BME280;26881;48.784;9.192;2024-03-02T19:59:48;97031.88;;;11.14;73.13
41140;BME280;26881;48.784;9.192;2024-03-02T20:05:10;97024.97;;;11.03;73.70
41140;BME280;26881;48.784;9.192;2024-03-02T20:10:34;97013.19;;;10.88;74.62
41140;BME280;26881;48.784;9.192;2024-03-02T20:15:55;97016.84;;;10.75;75.66
41140;BME280;26881;48.784;9.192;2024-03-02T20:21:18;97010.47;;;10.68;76.09
41140;BME280;26881;48.784;9.192;2024-03-02T20:26:40;97013.97;;;10.58;77.27
41140;BME280;26881;48.784;9.192;2024-03-02T20:32:02;97020.84;;;10.49;77.38
41140;BME280;26881;48.784;9.192;2024-03-02T20:37:24;97015.13;;;10.44;77.86
41140;BME280;26881;48.784;9.192;2024-03-02T20:42:46;97008.53;;;10.40;78.63
41140;BME280;26881;48.784;9.192;2024-03-02T20:48:08;96997.16;;;10.29;79.40
41140;BME280;26881;48.784;9.192;2024-03-02T20:53:30;96982.66;;;10.25;79.91
41140;BME280;26881;48.784;9.192;2024-03-02T20:58:52;96986.31;;;10.13;81.10
41140;BME280;26881;48.784;9.192;2024-03-02T21:04:14;96992.72;;;10.09;81.87
41140;BME280;26881;48.784;9.192;2024-03-02T21:09:36;96991.72;;;10.00;82.58
41140;BME280;26881;48.784;9.192;2024-03-02T21:14:58;96989.72;;;9.92;83.40
41140;BME280;26881;48.784;9.192;2024-03-02T21:20:21;96983.56;;;9.94;83.59
41140;BME280;26881;48.784;9.192;2024-03-02T21:25:43;96970.50;;;9.94;83.61
41140;BME280;26881;48.784;9.192;2024-03-02T21:31:06;96967.44;;;9.88;84.13
41140;BME280;26881;48.784;9.192;2024-03-02T21:36:27;96967.44;;;9.88;84.04
41140;BME280;26881;48.784;9.192;2024-03-02T21:41:49;96974.41;;;9.88;84.15
41140;BME280;26881;48.784;9.192;2024-03-02T21:47:12;96971.88;;;9.77;85.46
41140;BME280;26881;48.784;9.192;2024-03-02T21:52:34;96973.66;;;9.76;86.16
41140;BME280;26881;48.784;9.192;2024-03-02T21:57:56;96966.06;;;9.73;86.63
41140;BME280;26881;48.784;9.192;2024-03-02T22:03:18;96959.50;;;9.79;86.42
41140;BME280;26881;48.784;9.192;2024-03-02T22:08:40;96960.22;;;9.81;85.82
41140;BME280;26881;48.784;9.192;2024-03-02T22:14:02;96949.31;;;9.76;86.38
41140;BME280;26881;48.784;9.192;2024-03-02T22:19:24;96944.38;;;9.73;86.78
41140;BME280;26881;48.784;9.192;2024-03-02T22:24:46;96949.50;;;9.63;87.60
41140;BME280;26881;48.784;9.192;2024-03-02T22:30:08;96942.44;;;9.54;88.40
41140;BME280;26881;48.784;9.192;2024-03-02T22:35:30;96944.00;;;9.45;89.56
41140;BME280;26881;48.784;9.192;2024-03-02T22:40:52;96942.19;;;9.45;89.66
41140;BME280;26881;48.784;9.192;2024-03-02T22:46:14;96948.75;;;9.40;90.35
41140;BME280;26881;48.784;9.192;2024-03-02T22:51:35;96941.03;;;9.38;90.55
41140;BME280;26881;48.784;9.192;2024-03-02T22:56:57;96939.41;;;9.37;90.51
41140;BME280;26881;48.784;9.192;2024-03-02T23:02:20;96944.28;;;9.31;91.32
41140;BME280;26881;48.784;9.192;2024-03-02T23:07:43;96947.97;;;9.28;91.24
41140;BME280;26881;48.784;9.192;2024-03-02T23:13:04;96943.56;;;9.28;91.32
41140;BME280;26881;48.784;9.192;2024-03-02T23:18:27;96947.47;;;9.23;91.35
41140;BME280;26881;48.784;9.192;2024-03-02T23:23:49;96938.97;;;9.10;92.90
41140;BME280;26881;48.784;9.192;2024-03-02T23:29:14;96930.94;;;9.01;93.96
41140;BME280;26881;48.784;9.192;2024-03-02T23:34:36;96934.50;;;9.00;93.84
41140;BME280;26881;48.784;9.192;2024-03-02T23:39:58;96931.19;;;8.87;94.72
41140;BME280;26881;48.784;9.192;2024-03-02T23:45:25;96943.41;;;8.86;94.41
41140;BME280;26881;48.784;9.192;2024-03-02T23:50:47;96944.72;;;8.47;96.41
41140;BME280;26881;48.784;9.192;2024-03-02T23:56:11;96954.84;;;8.28;98.83
